sensor_id;sensor_type;location;lat;lon;timestamp;P1;durP1;ratioP1;P2;durP2;ratioP2
48263;SDS011;34086;51.076;13.722;2023-04-06T00:00:16;15.52;;;10.57;;
48263;SDS011;34086;51.076;13.722;2023-04-06T00:01:17;17.42;;;10.65;;
48263;SDS011;34086;51.076;13.722;2023-04-06T00:02:17;14.63;;;10.30;;
48263;SDS011;34086;51.076;13.722;2023-04-06T00:03:18;15.20;;;10.75;;
48263;SDS011;34086;51.076;13.722;2023-04-06T00:04:19;15.25;;;10.48;;
48263;SDS011;34086;51.076;13.722;2023-04-06T00:05:19;14.35;;;10.13;;
48263;SDS011;34086;51.076;13.722;2023-04-06T00:06:21;15.38;;;10.10;;
48263;SDS011;34086;51.076;13.722;2023-04-06T00:07:22;13.98;;;10.27;;
48263;SDS011;34086;51.076;13.722;2023-04-06T00:08:22;14.23;;;9.73;;
48263;SDS011;34086;51.076;13.722;2023-04-06T00:09:23;13.82;;;9.70;;
48263;SDS011;34086;51.076;13.722;2023-04-06T00:10:24;13.35;;;9.55;;
48263;SDS011;34086;51.076;13.722;2023-04-06T00:11:25;12.43;;;9.15;;
48263;SDS011;34086;51.076;13.722;2023-04-06T00:12:26;15.55;;;9.50;;
48263;SDS011;34086;51.076;13.722;2023-04-06T00:13:27;14.25;;;9.57;;
48263;SDS011;34086;51.076;13.722;2023-04-06T00:14:27;13.45;;;9.23;;
48263;SDS011;34086;51.076;13.722;2023-04-06T00:15:28;13.20;;;9.20;;
48263;SDS011;34086;51.076;13.722;2023-04-06T00:16:28;11.38;;;8.75;;
48263;SDS011;34086;51.076;13.722;2023-04-06T00:17:29;12.50;;;8.88;;
48263;SDS011;34086;51.076;13.722;2023-04-06T00:18:30;12.68;;;8.82;;
48263;SDS011;34086;51.076;13.722;2023-04-06T00:19:31;13.05;;;8.55;;
48263;SDS011;34086;51.076;13.722;2023-04-06T00:20:31;12.77;;;8.82;;
48263;SDS011;34086;51.076;13.722;2023-04-06T00:21:32;13.18;;;9.23;;
48263;SDS011;34086;51.076;13.722;2023-04-06T00:22:33;12.75;;;8.63;;
48263;SDS011;34086;51.076;13.722;2023-04-06T00:23:34;11.32;;;8.70;;
48263;SDS011;34086;51.076;13.722;2023-04-06T00:24:35;11.88;;;9.07;;
48263;SDS011;34086;51.076;13.722;2023-04-06T00:25:35;12.02;;;8.80;;
48263;SDS011;34086;51.076;13.722;2023-04-06T00:26:36;13.10;;;8.85;;
48263;SDS011;34086;51.076;13.722;2023-04-06T00:27:37;12.48;;;8.88;;
48263;SDS011;34086;51.076;13.722;2023-04-06T00:28:38;13.02;;;8.98;;
48263;SDS011;34086;51.076;13.722;2023-04-06T00:29:39;13.52;;;9.60;;
48263;SDS011;34086;51.076;13.722;2023-04-06T00:30:40;14.77;;;9.32;;
48263;SDS011;34086;51.076;13.722;2023-04-06T00:31:41;13.00;;;8.90;;
48263;SDS011;34086;51.076;13.722;2023-04-06T00:32:42;13.70;;;9.18;;
48263;SDS011;34086;51.076;13.722;2023-04-06T00:33:42;12.93;;;9.10;;
48263;SDS011;34086;51.076;13.722;2023-04-06T00:34:43;13.45;;;8.82;;
48263;SDS011;34086;51.076;13.722;2023-04-06T00:35:44;14.55;;;8.90;;
48263;SDS011;34086;51.076;13.722;2023-04-06T00:36:44;14.23;;;9.50;;
48263;SDS011;34086;51.076;13.722;2023-04-06T00:37:46;13.57;;;9.57;;
48263;SDS011;34086;51.076;13.722;2023-04-06T00:38:48;14.48;;;10.40;;
48263;SDS011;34086;51.076;13.722;2023-04-06T00:39:48;14.07;;;10.13;;
48263;SDS011;34086;51.076;13.722;2023-04-06T00:40:51;15.68;;;11.07;;
48263;SDS011;34086;51.076;13.722;2023-04-06T00:41:52;15.73;;;11.10;;
48263;SDS011;34086;51.076;13.722;2023-04-06T00:42:53;15.35;;;11.55;;
48263;SDS011;34086;51.076;13.722;2023-04-06T00:43:55;16.50;;;11.55;;
48263;SDS011;34086;51.076;13.722;2023-04-06T00:44:57;14.90;;;10.45;;
48263;SDS011;34086;51.076;13.722;2023-04-06T00:45:59;15.73;;;10.10;;
48263;SDS011;34086;51.076;13.722;2023-04-06T00:47:00;14.27;;;10.15;;
48263;SDS011;34086;51.076;13.722;2023-04-06T00:48:00;15.68;;;10.45;;
48263;SDS011;34086;51.076;13.722;2023-04-06T00:49:05;13.95;;;9.68;;
48263;SDS011;34086;51.076;13.722;2023-04-06T00:50:05;13.40;;;9.85;;
48263;SDS011;34086;51.076;13.722;2023-04-06T00:51:07;13.60;;;9.95;;
48263;SDS011;34086;51.076;13.722;2023-04-06T00:52:08;14.75;;;9.63;;
48263;SDS011;34086;51.076;13.722;2023-04-06T00:53:09;14.75;;;9.52;;
48263;SDS011;34086;51.076;13.722;2023-04-06T00:54:09;15.15;;;9.43;;
48263;SDS011;34086;51.076;13.722;2023-04-06T00:55:10;13.25;;;9.18;;
48263;SDS011;34086;51.076;13.722;2023-04-06T00:56:15;11.65;;;8.73;;
48263;SDS011;34086;51.076;13.722;2023-04-06T00:57:26;14.95;;;8.82;;
48263;SDS011;34086;51.076;13.722;2023-04-06T00:58:29;10.85;;;7.93;;
48263;SDS011;34086;51.076;13.722;2023-04-06T00:59:37;12.98;;;8.60;;
48263;SDS011;34086;51.076;13.722;2023-04-06T01:00:41;14.23;;;9.13;;
48263;SDS011;34086;51.076;13.722;2023-04-06T01:01:47;13.02;;;9.15;;
48263;SDS011;34086;51.076;13.722;2023-04-06T01:03:05;14.32;;;9.50;;
48263;SDS011;34086;51.076;13.722;2023-04-06T01:04:12;14.07;;;9.30;;
48263;SDS011;34086;51.076;13.722;2023-04-06T01:05:15;15.07;;;9.63;;
48263;SDS011;34086;51.076;13.722;2023-04-06T01:06:24;12.93;;;9.10;;
48263;SDS011;34086;51.076;13.722;2023-04-06T01:07:34;12.98;;;9.05;;
48263;SDS011;34086;51.076;13.722;2023-04-06T01:08:48;13.18;;;9.52;;
48263;SDS011;34086;51.076;13.722;2023-04-06T01:09:53;13.18;;;9.00;;
48263;SDS011;34086;51.076;13.722;2023-04-06T01:10:59;13.00;;;9.23;;
48263;SDS011;34086;51.076;13.722;2023-04-06T01:12:04;11.55;;;8.55;;
48263;SDS011;34086;51.076;13.722;2023-04-06T01:13:06;14.10;;;9.13;;
48263;SDS011;34086;51.076;13.722;2023-04-06T01:14:28;13.95;;;9.23;;
48263;SDS011;34086;51.076;13.722;2023-04-06T01:15:33;14.55;;;9.55;;
48263;SDS011;34086;51.076;13.722;2023-04-06T01:16:36;13.18;;;9.20;;
48263;SDS011;34086;51.076;13.722;2023-04-06T01:17:42;14.05;;;9.45;;
48263;SDS011;34086;51.076;13.722;2023-04-06T01:18:47;13.88;;;9.18;;
48263;SDS011;34086;51.076;13.722;2023-04-06T01:19:52;12.93;;;9.30;;
48263;SDS011;34086;51.076;13.722;2023-04-06T01:20:59;13.07;;;9.30;;
48263;SDS011;34086;51.076;13.722;2023-04-06T01:22:02;12.73;;;9.10;;
48263;SDS011;34086;51.076;13.722;2023-04-06T01:23:05;12.98;;;9.38;;
48263;SDS011;34086;51.076;13.722;2023-04-06T01:24:07;14.90;;;9.27;;
48263;SDS011;34086;51.076;13.722;2023-04-06T01:25:23;13.20;;;9.30;;
48263;SDS011;34086;51.076;13.722;2023-04-06T01:26:41;15.15;;;9.07;;
48263;SDS011;34086;51.076;13.722;2023-04-06T01:27:43;12.85;;;8.27;;
48263;SDS011;34086;51.076;13.722;2023-04-06T01:29:11;11.00;;;8.02;;
48263;SDS011;34086;51.076;13.722;2023-04-06T01:30:11;13.52;;;8.60;;
48263;SDS011;34086;51.076;13.722;2023-04-06T01:31:21;14.40;;;8.38;;
48263;SDS011;34086;51.076;13.722;2023-04-06T01:32:25;13.75;;;8.45;;
48263;SDS011;34086;51.076;13.722;2023-04-06T01:33:26;13.55;;;8.65;;
48263;SDS011;34086;51.076;13.722;2023-04-06T01:34:34;14.40;;;9.00;;
48263;SDS011;34086;51.076;13.722;2023-04-06T01:35:38;11.75;;;7.95;;
48263;SDS011;34086;51.076;13.722;2023-04-06T01:36:51;11.57;;;8.57;;
48263;SDS011;34086;51.076;13.722;2023-04-06T01:38:02;13.85;;;8.80;;
48263;SDS011;34086;51.076;13.722;2023-04-06T01:39:06;12.10;;;8.32;;
48263;SDS011;34086;51.076;13.722;2023-04-06T01:40:10;12.98;;;8.30;;
48263;SDS011;34086;51.076;13.722;2023-04-06T01:41:17;14.00;;;8.18;;
48263;SDS011;34086;51.076;13.722;2023-04-06T01:42:25;13.57;;;8.75;;
48263;SDS011;34086;51.076;13.722;2023-04-06T01:43:26;14.18;;;8.93;;
48263;SDS011;34086;51.076;13.722;2023-04-06T01:44:39;12.57;;;8.93;;
48263;SDS011;34086;51.076;13.722;2023-04-06T01:45:47;12.52;;;8.95;;
48263;SDS011;34086;51.076;13.722;2023-04-06T01:46:52;12.27;;;8.65;;
48263;SDS011;34086;51.076;13.722;2023-04-06T01:47:53;12.15;;;8.65;;
48263;SDS011;34086;51.076;13.722;2023-04-06T01:48:57;13.80;;;9.30;;
48263;SDS011;34086;51.076;13.722;2023-04-06T01:50:09;14.30;;;8.98;;
48263;SDS011;34086;51.076;13.722;2023-04-06T01:51:15;14.18;;;9.30;;
48263;SDS011;34086;51.076;13.722;2023-04-06T01:52:29;14.55;;;9.68;;
48263;SDS011;34086;51.076;13.722;2023-04-06T01:53:30;15.82;;;10.13;;
48263;SDS011;34086;51.076;13.722;2023-04-06T01:54:36;19.70;;;11.55;;
48263;SDS011;34086;51.076;13.722;2023-04-06T01:55:44;23.90;;;12.15;;
48263;SDS011;34086;51.076;13.722;2023-04-06T01:57:05;17.98;;;10.60;;
48263;SDS011;34086;51.076;13.722;2023-04-06T01:58:12;16.65;;;10.02;;
48263;SDS011;34086;51.076;13.722;2023-04-06T01:59:13;14.45;;;9.20;;
48263;SDS011;34086;51.076;13.722;2023-04-06T02:00:16;16.42;;;9.98;;
48263;SDS011;34086;51.076;13.722;2023-04-06T02:01:24;16.17;;;9.80;;
48263;SDS011;34086;51.076;13.722;2023-04-06T02:02:29;21.35;;;12.07;;
48263;SDS011;34086;51.076;13.722;2023-04-06T02:03:37;20.13;;;11.32;;
48263;SDS011;34086;51.076;13.722;2023-04-06T02:04:42;16.58;;;9.88;;
48263;SDS011;34086;51.076;13.722;2023-04-06T02:05:46;14.70;;;9.32;;
48263;SDS011;34086;51.076;13.722;2023-04-06T02:07:05;17.00;;;9.98;;
48263;SDS011;34086;51.076;13.722;2023-04-06T02:08:06;15.45;;;9.48;;
48263;SDS011;34086;51.076;13.722;2023-04-06T02:09:09;14.98;;;9.57;;
48263;SDS011;34086;51.076;13.722;2023-04-06T02:10:11;15.13;;;9.15;;
48263;SDS011;34086;51.076;13.722;2023-04-06T02:11:13;13.93;;;9.25;;
48263;SDS011;34086;51.076;13.722;2023-04-06T02:12:19;15.63;;;9.15;;
48263;SDS011;34086;51.076;13.722;2023-04-06T02:13:19;17.20;;;10.63;;
48263;SDS011;34086;51.076;13.722;2023-04-06T02:14:25;18.50;;;10.63;;
48263;SDS011;34086;51.076;13.722;2023-04-06T02:15:28;21.63;;;11.35;;
48263;SDS011;34086;51.076;13.722;2023-04-06T02:16:28;18.85;;;11.02;;
48263;SDS011;34086;51.076;13.722;2023-04-06T02:17:29;17.17;;;10.30;;
48263;SDS011;34086;51.076;13.722;2023-04-06T02:18:30;20.15;;;11.65;;
48263;SDS011;34086;51.076;13.722;2023-04-06T02:19:31;22.25;;;11.82;;
48263;SDS011;34086;51.076;13.722;2023-04-06T02:20:32;22.60;;;12.15;;
48263;SDS011;34086;51.076;13.722;2023-04-06T02:21:32;20.70;;;12.05;;
48263;SDS011;34086;51.076;13.722;2023-04-06T02:22:34;19.65;;;11.13;;
48263;SDS011;34086;51.076;13.722;2023-04-06T02:23:35;20.15;;;11.63;;
48263;SDS011;34086;51.076;13.722;2023-04-06T02:24:35;19.35;;;11.07;;
48263;SDS011;34086;51.076;13.722;2023-04-06T02:25:36;17.15;;;10.45;;
48263;SDS011;34086;51.076;13.722;2023-04-06T02:26:37;16.52;;;9.95;;
48263;SDS011;34086;51.076;13.722;2023-04-06T02:27:38;15.60;;;9.93;;
48263;SDS011;34086;51.076;13.722;2023-04-06T02:28:39;15.55;;;9.85;;
48263;SDS011;34086;51.076;13.722;2023-04-06T02:29:40;19.35;;;11.25;;
48263;SDS011;34086;51.076;13.722;2023-04-06T02:30:40;25.67;;;13.23;;
48263;SDS011;34086;51.076;13.722;2023-04-06T02:31:41;28.75;;;13.85;;
48263;SDS011;34086;51.076;13.722;2023-04-06T02:32:42;26.33;;;13.15;;
48263;SDS011;34086;51.076;13.722;2023-04-06T02:33:43;24.05;;;12.65;;
48263;SDS011;34086;51.076;13.722;2023-04-06T02:34:45;22.30;;;12.30;;
48263;SDS011;34086;51.076;13.722;2023-04-06T02:35:46;23.20;;;12.65;;
48263;SDS011;34086;51.076;13.722;2023-04-06T02:36:46;23.70;;;12.50;;
48263;SDS011;34086;51.076;13.722;2023-04-06T02:37:47;21.27;;;11.93;;
48263;SDS011;34086;51.076;13.722;2023-04-06T02:38:48;21.00;;;11.60;;
48263;SDS011;34086;51.076;13.722;2023-04-06T02:39:49;17.90;;;10.32;;
48263;SDS011;34086;51.076;13.722;2023-04-06T02:40:50;22.42;;;11.95;;
48263;SDS011;34086;51.076;13.722;2023-04-06T02:41:59;18.65;;;11.15;;
48263;SDS011;34086;51.076;13.722;2023-04-06T02:43:00;20.95;;;10.88;;
48263;SDS011;34086;51.076;13.722;2023-04-06T02:44:06;17.63;;;10.27;;
48263;SDS011;34086;51.076;13.722;2023-04-06T02:45:13;18.42;;;10.60;;
48263;SDS011;34086;51.076;13.722;2023-04-06T02:46:17;18.55;;;10.90;;
48263;SDS011;34086;51.076;13.722;2023-04-06T02:47:18;17.25;;;10.50;;
48263;SDS011;34086;51.076;13.722;2023-04-06T02:48:22;19.42;;;11.40;;
48263;SDS011;34086;51.076;13.722;2023-04-06T02:49:22;21.90;;;12.18;;
48263;SDS011;34086;51.076;13.722;2023-04-06T02:50:26;21.58;;;11.90;;
48263;SDS011;34086;51.076;13.722;2023-04-06T02:51:33;19.95;;;12.20;;
48263;SDS011;34086;51.076;13.722;2023-04-06T02:52:45;19.13;;;11.75;;
48263;SDS011;34086;51.076;13.722;2023-04-06T02:53:46;17.40;;;11.27;;
48263;SDS011;34086;51.076;13.722;2023-04-06T02:54:48;15.77;;;10.27;;
48263;SDS011;34086;51.076;13.722;2023-04-06T02:55:55;15.82;;;9.40;;
48263;SDS011;34086;51.076;13.722;2023-04-06T02:56:59;15.20;;;9.55;;
48263;SDS011;34086;51.076;13.722;2023-04-06T02:58:09;12.63;;;8.60;;
48263;SDS011;34086;51.076;13.722;2023-04-06T02:59:17;13.02;;;9.10;;
48263;SDS011;34086;51.076;13.722;2023-04-06T03:00:27;16.67;;;10.02;;
48263;SDS011;34086;51.076;13.722;2023-04-06T03:01:28;17.88;;;11.20;;
48263;SDS011;34086;51.076;13.722;2023-04-06T03:02:33;16.70;;;10.50;;
48263;SDS011;34086;51.076;13.722;2023-04-06T03:03:40;20.05;;;11.18;;
48263;SDS011;34086;51.076;13.722;2023-04-06T03:04:47;18.05;;;11.10;;
48263;SDS011;34086;51.076;13.722;2023-04-06T03:05:57;18.73;;;10.63;;
48263;SDS011;34086;51.076;13.722;2023-04-06T03:07:02;16.42;;;10.73;;
48263;SDS011;34086;51.076;13.722;2023-04-06T03:08:09;18.55;;;11.20;;
48263;SDS011;34086;51.076;13.722;2023-04-06T03:09:16;17.85;;;10.68;;
48263;SDS011;34086;51.076;13.722;2023-04-06T03:10:18;16.58;;;10.55;;
48263;SDS011;34086;51.076;13.722;2023-04-06T03:11:20;18.63;;;11.25;;
48263;SDS011;34086;51.076;13.722;2023-04-06T03:12:23;16.17;;;10.45;;
48263;SDS011;34086;51.076;13.722;2023-04-06T03:13:45;15.60;;;10.30;;
48263;SDS011;34086;51.076;13.722;2023-04-06T03:14:46;17.35;;;10.85;;
48263;SDS011;34086;51.076;13.722;2023-04-06T03:15:46;21.95;;;13.65;;
48263;SDS011;34086;51.076;13.722;2023-04-06T03:16:50;19.02;;;12.27;;
48263;SDS011;34086;51.076;13.722;2023-04-06T03:17:55;18.73;;;11.85;;
48263;SDS011;34086;51.076;13.722;2023-04-06T03:19:15;18.52;;;11.57;;
48263;SDS011;34086;51.076;13.722;2023-04-06T03:20:16;17.67;;;11.77;;
48263;SDS011;34086;51.076;13.722;2023-04-06T03:21:16;17.23;;;10.88;;
48263;SDS011;34086;51.076;13.722;2023-04-06T03:22:21;15.65;;;10.68;;
48263;SDS011;34086;51.076;13.722;2023-04-06T03:23:22;14.48;;;10.65;;
48263;SDS011;34086;51.076;13.722;2023-04-06T03:24:27;15.73;;;11.00;;
48263;SDS011;34086;51.076;13.722;2023-04-06T03:25:28;16.83;;;11.10;;
48263;SDS011;34086;51.076;13.722;2023-04-06T03:26:33;14.18;;;10.05;;
48263;SDS011;34086;51.076;13.722;2023-04-06T03:27:38;14.88;;;9.77;;
48263;SDS011;34086;51.076;13.722;2023-04-06T03:28:41;14.77;;;10.40;;
48263;SDS011;34086;51.076;13.722;2023-04-06T03:29:42;14.55;;;10.35;;
48263;SDS011;34086;51.076;13.722;2023-04-06T03:30:47;13.93;;;9.82;;
48263;SDS011;34086;51.076;13.722;2023-04-06T03:31:50;14.77;;;10.40;;
48263;SDS011;34086;51.076;13.722;2023-04-06T03:33:17;14.55;;;10.35;;
48263;SDS011;34086;51.076;13.722;2023-04-06T03:34:26;16.90;;;9.93;;
48263;SDS011;34086;51.076;13.722;2023-04-06T03:35:26;15.82;;;9.85;;
48263;SDS011;34086;51.076;13.722;2023-04-06T03:36:27;15.55;;;9.82;;
48263;SDS011;34086;51.076;13.722;2023-04-06T03:37:29;14.65;;;9.75;;
48263;SDS011;34086;51.076;13.722;2023-04-06T03:38:34;14.80;;;9.80;;
48263;SDS011;34086;51.076;13.722;2023-04-06T03:39:40;14.77;;;9.70;;
48263;SDS011;34086;51.076;13.722;2023-04-06T03:40:41;13.57;;;9.73;;
48263;SDS011;34086;51.076;13.722;2023-04-06T03:41:42;15.75;;;9.65;;
48263;SDS011;34086;51.076;13.722;2023-04-06T03:43:00;14.80;;;9.40;;
48263;SDS011;34086;51.076;13.722;2023-04-06T03:44:01;13.63;;;9.68;;
48263;SDS011;34086;51.076;13.722;2023-04-06T03:45:02;14.93;;;9.75;;
48263;SDS011;34086;51.076;13.722;2023-04-06T03:46:03;13.98;;;9.43;;
48263;SDS011;34086;51.076;13.722;2023-04-06T03:47:04;16.33;;;10.00;;
48263;SDS011;34086;51.076;13.722;2023-04-06T03:48:05;14.68;;;9.88;;
48263;SDS011;34086;51.076;13.722;2023-04-06T03:49:08;13.52;;;9.63;;
48263;SDS011;34086;51.076;13.722;2023-04-06T03:50:09;13.27;;;9.20;;
48263;SDS011;34086;51.076;13.722;2023-04-06T03:51:10;13.50;;;9.43;;
48263;SDS011;34086;51.076;13.722;2023-04-06T03:52:11;11.57;;;8.70;;
48263;SDS011;34086;51.076;13.722;2023-04-06T03:53:11;19.15;;;9.73;;
48263;SDS011;34086;51.076;13.722;2023-04-06T03:54:12;14.93;;;9.10;;
48263;SDS011;34086;51.076;13.722;2023-04-06T03:55:12;14.77;;;9.52;;
48263;SDS011;34086;51.076;13.722;2023-04-06T03:56:13;13.88;;;9.30;;
48263;SDS011;34086;51.076;13.722;2023-04-06T03:57:13;15.60;;;9.18;;
48263;SDS011;34086;51.076;13.722;2023-04-06T03:58:14;13.93;;;9.50;;
48263;SDS011;34086;51.076;13.722;2023-04-06T03:59:15;14.90;;;9.75;;
48263;SDS011;34086;51.076;13.722;2023-04-06T04:00:16;13.85;;;9.95;;
48263;SDS011;34086;51.076;13.722;2023-04-06T04:01:17;13.70;;;9.13;;
48263;SDS011;34086;51.076;13.722;2023-04-06T04:02:20;15.18;;;9.50;;
48263;SDS011;34086;51.076;13.722;2023-04-06T04:03:21;14.63;;;9.70;;
48263;SDS011;34086;51.076;13.722;2023-04-06T04:04:23;14.40;;;9.43;;
48263;SDS011;34086;51.076;13.722;2023-04-06T04:05:24;14.25;;;9.38;;
48263;SDS011;34086;51.076;13.722;2023-04-06T04:06:26;16.30;;;10.02;;
48263;SDS011;34086;51.076;13.722;2023-04-06T04:07:26;17.38;;;10.27;;
48263;SDS011;34086;51.076;13.722;2023-04-06T04:08:27;16.25;;;9.95;;
48263;SDS011;34086;51.076;13.722;2023-04-06T04:09:28;15.07;;;9.98;;
48263;SDS011;34086;51.076;13.722;2023-04-06T04:10:28;13.60;;;9.88;;
48263;SDS011;34086;51.076;13.722;2023-04-06T04:11:29;15.98;;;10.32;;
48263;SDS011;34086;51.076;13.722;2023-04-06T04:12:32;15.93;;;10.25;;
48263;SDS011;34086;51.076;13.722;2023-04-06T04:13:32;17.42;;;10.60;;
48263;SDS011;34086;51.076;13.722;2023-04-06T04:14:36;20.38;;;10.98;;
48263;SDS011;34086;51.076;13.722;2023-04-06T04:15:36;19.75;;;11.55;;
48263;SDS011;34086;51.076;13.722;2023-04-06T04:16:37;21.27;;;11.20;;
48263;SDS011;34086;51.076;13.722;2023-04-06T04:17:39;18.90;;;10.27;;
48263;SDS011;34086;51.076;13.722;2023-04-06T04:18:39;18.15;;;10.88;;
48263;SDS011;34086;51.076;13.722;2023-04-06T04:19:40;20.13;;;10.45;;
48263;SDS011;34086;51.076;13.722;2023-04-06T04:20:41;16.83;;;10.27;;
48263;SDS011;34086;51.076;13.722;2023-04-06T04:21:44;15.70;;;10.13;;
48263;SDS011;34086;51.076;13.722;2023-04-06T04:22:49;17.17;;;10.20;;
48263;SDS011;34086;51.076;13.722;2023-04-06T04:23:50;17.55;;;10.50;;
48263;SDS011;34086;51.076;13.722;2023-04-06T04:24:51;15.95;;;9.68;;
48263;SDS011;34086;51.076;13.722;2023-04-06T04:25:52;16.20;;;10.10;;
48263;SDS011;34086;51.076;13.722;2023-04-06T04:26:52;14.93;;;9.57;;
48263;SDS011;34086;51.076;13.722;2023-04-06T04:27:53;15.48;;;10.05;;
48263;SDS011;34086;51.076;13.722;2023-04-06T04:28:55;17.35;;;9.98;;
48263;SDS011;34086;51.076;13.722;2023-04-06T04:29:56;15.45;;;9.65;;
48263;SDS011;34086;51.076;13.722;2023-04-06T04:30:57;15.65;;;10.27;;
48263;SDS011;34086;51.076;13.722;2023-04-06T04:31:57;16.50;;;9.98;;
48263;SDS011;34086;51.076;13.722;2023-04-06T04:32:58;15.45;;;10.27;;
48263;SDS011;34086;51.076;13.722;2023-04-06T04:33:59;16.38;;;10.52;;
48263;SDS011;34086;51.076;13.722;2023-04-06T04:35:03;14.07;;;9.95;;
48263;SDS011;34086;51.076;13.722;2023-04-06T04:36:09;26.50;;;12.27;;
48263;SDS011;34086;51.076;13.722;2023-04-06T04:37:14;27.88;;;13.18;;
48263;SDS011;34086;51.076;13.722;2023-04-06T04:38:23;23.23;;;12.27;;
48263;SDS011;34086;51.076;13.722;2023-04-06T04:39:27;23.08;;;13.60;;
48263;SDS011;34086;51.076;13.722;2023-04-06T04:40:35;19.13;;;12.25;;
48263;SDS011;34086;51.076;13.722;2023-04-06T04:41:42;19.42;;;11.82;;
48263;SDS011;34086;51.076;13.722;2023-04-06T04:42:45;15.70;;;10.75;;
48263;SDS011;34086;51.076;13.722;2023-04-06T04:43:52;16.20;;;10.82;;
48263;SDS011;34086;51.076;13.722;2023-04-06T04:44:56;16.30;;;10.60;;
48263;SDS011;34086;51.076;13.722;2023-04-06T04:46:13;16.55;;;10.80;;
48263;SDS011;34086;51.076;13.722;2023-04-06T04:47:16;14.93;;;10.63;;
48263;SDS011;34086;51.076;13.722;2023-04-06T04:48:20;18.35;;;11.05;;
48263;SDS011;34086;51.076;13.722;2023-04-06T04:49:28;17.60;;;10.57;;
48263;SDS011;34086;51.076;13.722;2023-04-06T04:50:29;18.02;;;10.38;;
48263;SDS011;34086;51.076;13.722;2023-04-06T04:51:32;19.35;;;10.65;;
48263;SDS011;34086;51.076;13.722;2023-04-06T04:52:43;16.17;;;10.95;;
48263;SDS011;34086;51.076;13.722;2023-04-06T04:53:48;16.65;;;11.40;;
48263;SDS011;34086;51.076;13.722;2023-04-06T04:54:54;17.58;;;11.13;;
48263;SDS011;34086;51.076;13.722;2023-04-06T04:56:00;19.77;;;10.93;;
48263;SDS011;34086;51.076;13.722;2023-04-06T04:57:01;19.58;;;11.95;;
48263;SDS011;34086;51.076;13.722;2023-04-06T04:58:16;18.80;;;11.55;;
48263;SDS011;34086;51.076;13.722;2023-04-06T04:59:24;18.13;;;11.48;;
48263;SDS011;34086;51.076;13.722;2023-04-06T05:00:33;16.98;;;10.50;;
48263;SDS011;34086;51.076;13.722;2023-04-06T05:01:34;16.58;;;10.75;;
48263;SDS011;34086;51.076;13.722;2023-04-06T05:02:35;18.88;;;11.00;;
48263;SDS011;34086;51.076;13.722;2023-04-06T05:04:08;17.75;;;10.63;;
48263;SDS011;34086;51.076;13.722;2023-04-06T05:05:08;18.27;;;11.40;;
48263;SDS011;34086;51.076;13.722;2023-04-06T05:06:09;16.15;;;11.25;;
48263;SDS011;34086;51.076;13.722;2023-04-06T05:07:13;18.08;;;10.70;;
48263;SDS011;34086;51.076;13.722;2023-04-06T05:08:15;17.15;;;10.88;;
48263;SDS011;34086;51.076;13.722;2023-04-06T05:09:19;18.27;;;10.73;;
48263;SDS011;34086;51.076;13.722;2023-04-06T05:10:20;17.80;;;10.13;;
48263;SDS011;34086;51.076;13.722;2023-04-06T05:11:27;14.57;;;10.10;;
48263;SDS011;34086;51.076;13.722;2023-04-06T05:12:34;15.57;;;10.50;;
48263;SDS011;34086;51.076;13.722;2023-04-06T05:13:42;17.00;;;10.43;;
48263;SDS011;34086;51.076;13.722;2023-04-06T05:14:50;14.38;;;10.02;;
48263;SDS011;34086;51.076;13.722;2023-04-06T05:15:53;16.25;;;10.45;;
48263;SDS011;34086;51.076;13.722;2023-04-06T05:17:00;17.58;;;10.20;;
48263;SDS011;34086;51.076;13.722;2023-04-06T05:18:00;18.83;;;10.40;;
48263;SDS011;34086;51.076;13.722;2023-04-06T05:19:06;16.83;;;10.40;;
48263;SDS011;34086;51.076;13.722;2023-04-06T05:20:13;18.42;;;10.70;;
48263;SDS011;34086;51.076;13.722;2023-04-06T05:21:21;21.52;;;11.32;;
48263;SDS011;34086;51.076;13.722;2023-04-06T05:22:28;20.50;;;11.80;;
48263;SDS011;34086;51.076;13.722;2023-04-06T05:24:50;21.23;;;12.50;;
48263;SDS011;34086;51.076;13.722;2023-04-06T05:25:50;23.17;;;12.68;;
48263;SDS011;34086;51.076;13.722;2023-04-06T05:26:55;19.60;;;12.55;;
48263;SDS011;34086;51.076;13.722;2023-04-06T05:27:58;21.48;;;12.68;;
48263;SDS011;34086;51.076;13.722;2023-04-06T05:29:08;22.98;;;12.80;;
48263;SDS011;34086;51.076;13.722;2023-04-06T05:30:11;25.17;;;15.07;;
48263;SDS011;34086;51.076;13.722;2023-04-06T05:31:18;22.90;;;13.73;;
48263;SDS011;34086;51.076;13.722;2023-04-06T05:32:22;24.85;;;14.20;;
48263;SDS011;34086;51.076;13.722;2023-04-06T05:33:25;25.20;;;14.70;;
48263;SDS011;34086;51.076;13.722;2023-04-06T05:35:38;19.75;;;11.88;;
48263;SDS011;34086;51.076;13.722;2023-04-06T05:36:44;21.30;;;12.30;;
48263;SDS011;34086;51.076;13.722;2023-04-06T05:37:51;19.75;;;12.02;;
48263;SDS011;34086;51.076;13.722;2023-04-06T05:38:55;21.65;;;12.15;;
48263;SDS011;34086;51.076;13.722;2023-04-06T05:40:09;18.90;;;12.07;;
48263;SDS011;34086;51.076;13.722;2023-04-06T05:41:10;27.20;;;13.93;;
48263;SDS011;34086;51.076;13.722;2023-04-06T05:42:13;23.80;;;14.05;;
48263;SDS011;34086;51.076;13.722;2023-04-06T05:43:25;19.98;;;11.90;;
48263;SDS011;34086;51.076;13.722;2023-04-06T05:44:28;21.75;;;12.00;;
48263;SDS011;34086;51.076;13.722;2023-04-06T05:45:37;17.98;;;11.80;;
48263;SDS011;34086;51.076;13.722;2023-04-06T05:46:40;19.83;;;12.00;;
48263;SDS011;34086;51.076;13.722;2023-04-06T05:47:45;21.90;;;12.10;;
48263;SDS011;34086;51.076;13.722;2023-04-06T05:49:06;20.83;;;12.13;;
48263;SDS011;34086;51.076;13.722;2023-04-06T05:50:07;21.25;;;11.52;;
48263;SDS011;34086;51.076;13.722;2023-04-06T05:51:11;23.95;;;12.43;;
48263;SDS011;34086;51.076;13.722;2023-04-06T05:52:18;26.98;;;12.85;;
48263;SDS011;34086;51.076;13.722;2023-04-06T05:53:20;23.60;;;12.90;;
48263;SDS011;34086;51.076;13.722;2023-04-06T05:54:27;18.02;;;11.82;;
48263;SDS011;34086;51.076;13.722;2023-04-06T05:55:33;21.05;;;12.95;;
48263;SDS011;34086;51.076;13.722;2023-04-06T05:56:47;21.33;;;11.98;;
48263;SDS011;34086;51.076;13.722;2023-04-06T05:57:48;24.15;;;12.98;;
48263;SDS011;34086;51.076;13.722;2023-04-06T05:58:52;19.10;;;12.95;;
48263;SDS011;34086;51.076;13.722;2023-04-06T05:59:58;20.98;;;13.32;;
48263;SDS011;34086;51.076;13.722;2023-04-06T06:01:12;20.02;;;13.32;;
48263;SDS011;34086;51.076;13.722;2023-04-06T06:02:16;19.15;;;12.23;;
48263;SDS011;34086;51.076;13.722;2023-04-06T06:03:20;19.02;;;11.90;;
48263;SDS011;34086;51.076;13.722;2023-04-06T06:04:26;20.65;;;12.98;;
48263;SDS011;34086;51.076;13.722;2023-04-06T06:05:28;21.30;;;13.07;;
48263;SDS011;34086;51.076;13.722;2023-04-06T06:06:32;19.88;;;12.25;;
48263;SDS011;34086;51.076;13.722;2023-04-06T06:07:45;18.60;;;11.88;;
48263;SDS011;34086;51.076;13.722;2023-04-06T06:08:45;21.35;;;13.20;;
48263;SDS011;34086;51.076;13.722;2023-04-06T06:09:49;20.20;;;13.40;;
48263;SDS011;34086;51.076;13.722;2023-04-06T06:10:55;20.35;;;12.95;;
48263;SDS011;34086;51.076;13.722;2023-04-06T06:11:57;18.58;;;12.23;;
48263;SDS011;34086;51.076;13.722;2023-04-06T06:13:01;19.52;;;12.35;;
48263;SDS011;34086;51.076;13.722;2023-04-06T06:14:02;18.17;;;12.10;;